createdAt,value
2022-10-11T00:01:00.660Z,6.90
2022-10-11T00:03:28.867Z,6.63
2022-10-11T00:05:57.260Z,7.40
2022-10-11T00:08:28.356Z,6.88
2022-10-11T00:11:00.562Z,6.63
2022-10-11T00:13:30.652Z,6.63
2022-10-11T00:15:58.910Z,6.43
2022-10-11T00:18:27.103Z,6.32
2022-10-11T00:21:02.991Z,7.13
2022-10-11T00:23:31.042Z,6.65
2022-10-11T00:26:00.115Z,6.75
2022-10-11T00:28:30.959Z,6.67
2022-10-11T00:30:59.253Z,6.50
2022-10-11T00:33:27.221Z,6.85
2022-10-11T00:35:57.335Z,7.70
2022-10-11T00:38:28.255Z,6.88
2022-10-11T00:40:56.979Z,7.67
2022-10-11T00:43:27.611Z,9.25
2022-10-11T00:46:25.716Z,8.27
2022-10-11T00:48:58.752Z,7.47
2022-10-11T00:51:36.272Z,6.90
2022-10-11T00:54:05.639Z,6.73
2022-10-11T00:56:37.090Z,7.30
2022-10-11T00:59:10.565Z,7.65
2022-10-11T01:01:40.414Z,7.05
2022-10-11T01:04:08.343Z,7.25
2022-10-11T01:06:36.459Z,8.37
2022-10-11T01:09:04.920Z,8.73
2022-10-11T01:11:34.677Z,8.70
2022-10-11T01:14:25.015Z,7.90
2022-10-11T01:17:01.743Z,7.57
2022-10-11T01:19:49.981Z,6.50
2022-10-11T01:22:36.919Z,7.60
2022-10-11T01:25:27.238Z,6.45
2022-10-11T01:28:17.677Z,6.93
2022-10-11T01:30:48.495Z,6.35
2022-10-11T01:33:32.834Z,6.53
2022-10-11T01:36:08.901Z,6.75
2022-10-11T01:38:43.988Z,6.95
2022-10-11T01:41:16.033Z,6.75
2022-10-11T01:43:45.870Z,6.47
2022-10-11T01:46:16.191Z,6.10
2022-10-11T01:48:52.982Z,5.88
2022-10-11T01:51:22.829Z,5.90
2022-10-11T01:54:10.477Z,6.13
2022-10-11T01:56:53.639Z,7.25
2022-10-11T01:59:35.495Z,6.70
2022-10-11T02:02:16.552Z,6.43
2022-10-11T02:04:50.649Z,6.72
2022-10-11T02:07:23.220Z,7.07
2022-10-11T02:09:58.476Z,6.47
2022-10-11T02:12:32.202Z,6.50
2022-10-11T02:15:03.666Z,7.05
2022-10-11T02:17:37.849Z,7.10
2022-10-11T02:20:21.518Z,6.60
2022-10-11T02:22:53.159Z,6.90
2022-10-11T02:25:24.609Z,8.33
2022-10-11T02:27:57.475Z,9.80
2022-10-11T02:30:25.503Z,9.88
2022-10-11T02:32:55.801Z,10.15
2022-10-11T02:35:25.397Z,9.65
2022-10-11T02:37:56.037Z,9.43
2022-10-11T02:40:28.975Z,8.23
2022-10-11T02:43:01.492Z,7.95
2022-10-11T02:45:35.597Z,8.40
2022-10-11T02:48:06.015Z,7.15
2022-10-11T02:50:34.327Z,7.70
2022-10-11T02:53:04.723Z,6.93
2022-10-11T02:55:32.798Z,8.05
2022-10-11T02:58:01.029Z,7.10
2022-10-11T03:00:31.557Z,6.78
2022-10-11T03:03:00.279Z,5.60
2022-10-11T03:05:29.848Z,6.22
2022-10-11T03:07:57.866Z,6.32
2022-10-11T03:10:25.844Z,5.68
2022-10-11T03:12:55.531Z,6.10
2022-10-11T03:15:23.112Z,7.37
2022-10-11T03:17:51.579Z,5.57
2022-10-11T03:20:19.663Z,6.10
2022-10-11T03:22:49.506Z,7.03
2022-10-11T03:25:17.925Z,6.13
2022-10-11T03:27:45.966Z,6.10
2022-10-11T03:30:18.347Z,6.30
2022-10-11T03:32:46.849Z,6.22
2022-10-11T03:35:16.352Z,6.82
2022-10-11T03:37:44.200Z,6.57
2022-10-11T03:40:19.530Z,5.93
2022-10-11T03:42:47.400Z,6.28
2022-10-11T03:45:15.341Z,6.20
2022-10-11T03:47:43.320Z,5.93
2022-10-11T03:50:11.974Z,6.22
2022-10-11T03:52:40.078Z,5.97
2022-10-11T03:55:10.609Z,5.85
2022-10-11T03:57:39.913Z,4.82
2022-10-11T04:00:09.586Z,4.70
2022-10-11T04:02:39.327Z,6.00
2022-10-11T04:05:07.940Z,4.93
2022-10-11T04:07:36.048Z,5.53
2022-10-11T04:10:03.841Z,5.82
2022-10-11T04:12:31.702Z,5.07
2022-10-11T04:15:01.225Z,5.80
2022-10-11T04:17:30.561Z,5.60
2022-10-11T04:19:59.019Z,5.80
2022-10-11T04:22:27.738Z,6.18
2022-10-11T04:24:56.072Z,6.20
2022-10-11T04:27:24.058Z,5.85
2022-10-11T04:29:52.758Z,5.87
2022-10-11T04:32:22.102Z,7.82
2022-10-11T04:34:50.906Z,6.82
2022-10-11T04:37:19.005Z,6.38
2022-10-11T04:39:46.974Z,6.45
2022-10-11T04:42:14.814Z,6.60
2022-10-11T04:44:42.543Z,6.35
2022-10-11T04:47:11.054Z,5.80
2022-10-11T04:49:40.693Z,6.68
2022-10-11T04:52:08.541Z,6.32
2022-10-11T04:54:37.105Z,7.37
2022-10-11T04:57:04.883Z,7.07
2022-10-11T04:59:33.009Z,6.55
2022-10-11T05:02:01.212Z,7.28
2022-10-11T05:04:29.165Z,7.18
2022-10-11T05:06:58.525Z,7.53
2022-10-11T05:09:26.340Z,8.13
2022-10-11T05:11:54.558Z,8.05
2022-10-11T05:14:22.603Z,9.07
2022-10-11T05:16:50.503Z,9.35
2022-10-11T05:19:18.562Z,9.77
2022-10-11T05:21:46.361Z,11.75
2022-10-11T05:24:15.361Z,11.10
2022-10-11T05:26:44.948Z,12.10
2022-10-11T05:29:12.849Z,11.38
2022-10-11T05:31:40.916Z,11.37
2022-10-11T05:34:09.329Z,11.73
2022-10-11T05:36:37.703Z,12.30
2022-10-11T05:39:06.420Z,13.43
2022-10-11T05:41:35.745Z,13.50
2022-10-11T05:44:05.148Z,13.00
2022-10-11T05:46:32.978Z,13.73
2022-10-11T05:49:00.552Z,12.25
2022-10-11T05:51:28.542Z,11.70
2022-10-11T05:53:56.177Z,13.32
2022-10-11T05:56:26.403Z,25.03
2022-10-11T05:59:01.377Z,24.08
2022-10-11T06:01:30.631Z,14.20
2022-10-11T06:03:58.933Z,10.98
2022-10-11T06:06:27.520Z,9.52
2022-10-11T06:08:55.661Z,9.63
2022-10-11T06:11:26.074Z,11.30
2022-10-11T06:13:56.389Z,12.73
2022-10-11T06:16:24.389Z,12.30
2022-10-11T06:18:54.312Z,11.90
2022-10-11T06:21:22.533Z,11.40
2022-10-11T06:23:52.953Z,11.63
2022-10-11T06:26:22.996Z,11.10
2022-10-11T06:28:51.124Z,10.77
2022-10-11T06:31:20.540Z,12.63
2022-10-11T06:33:48.704Z,13.63
2022-10-11T06:36:17.481Z,14.32
2022-10-11T06:38:45.813Z,14.15
2022-10-11T06:41:17.576Z,15.30
2022-10-11T06:43:46.101Z,12.82
2022-10-11T06:46:14.076Z,11.20
2022-10-11T06:48:45.658Z,10.00
2022-10-11T06:51:14.924Z,10.63
2022-10-11T06:53:43.565Z,9.40
2022-10-11T06:56:13.614Z,8.70
2022-10-11T06:58:41.580Z,8.43
2022-10-11T07:01:12.629Z,9.38
2022-10-11T07:03:40.795Z,9.63
2022-10-11T07:06:12.858Z,8.85
2022-10-11T07:08:41.038Z,9.65
2022-10-11T07:11:11.346Z,9.20
2022-10-11T07:13:40.163Z,9.23
2022-10-11T07:16:10.612Z,9.13
2022-10-11T07:18:39.695Z,8.00
2022-10-11T07:21:12.034Z,8.73
2022-10-11T07:23:40.240Z,8.83
2022-10-11T07:26:09.660Z,8.25
2022-10-11T07:28:39.097Z,8.60
2022-10-11T07:31:07.741Z,7.32
2022-10-11T07:33:35.772Z,8.18
2022-10-11T07:36:07.297Z,7.60
2022-10-11T07:38:37.203Z,7.95
2022-10-11T07:41:06.756Z,8.63
2022-10-11T07:43:34.832Z,7.47
2022-10-11T07:46:04.883Z,7.75
2022-10-11T07:48:34.376Z,7.37
2022-10-11T07:51:08.366Z,8.98
2022-10-11T07:53:42.651Z,8.60
2022-10-11T07:56:12.448Z,8.90
2022-10-11T07:58:41.402Z,8.00
2022-10-11T08:01:10.587Z,7.27
2022-10-11T08:03:38.916Z,7.20
2022-10-11T08:06:09.829Z,6.78
2022-10-11T08:08:40.296Z,8.23
2022-10-11T08:11:08.792Z,7.53
2022-10-11T08:13:36.385Z,9.27
2022-10-11T08:16:11.226Z,7.63
2022-10-11T08:18:39.009Z,7.00
2022-10-11T08:21:08.559Z,6.93
2022-10-11T08:23:36.168Z,6.75
2022-10-11T08:26:06.063Z,7.03
2022-10-11T08:28:33.914Z,8.00
2022-10-11T08:31:02.573Z,6.47
2022-10-11T08:33:31.193Z,6.78
2022-10-11T08:35:59.181Z,6.55
2022-10-11T08:38:27.107Z,5.97
2022-10-11T08:40:57.603Z,6.70
2022-10-11T08:43:43.209Z,6.60
2022-10-11T08:46:13.412Z,6.45
2022-10-11T08:48:44.580Z,6.82
2022-10-11T08:51:19.790Z,6.30
2022-10-11T08:53:52.939Z,6.88
2022-10-11T08:56:22.505Z,5.93
2022-10-11T08:58:57.599Z,7.25
2022-10-11T09:01:28.665Z,7.18
2022-10-11T09:04:00.462Z,6.90
2022-10-11T09:06:40.131Z,7.13
2022-10-11T09:09:51.338Z,7.38
2022-10-11T09:12:31.167Z,6.22
2022-10-11T09:15:27.870Z,6.38
2022-10-11T09:18:15.576Z,6.37
2022-10-11T09:21:02.329Z,5.93
2022-10-11T09:23:45.675Z,5.97
2022-10-11T09:26:16.896Z,6.38
2022-10-11T09:28:55.154Z,6.78
2022-10-11T09:31:28.857Z,6.23
2022-10-11T09:33:58.753Z,6.78
2022-10-11T09:36:33.158Z,7.35
2022-10-11T09:39:07.288Z,7.90
2022-10-11T09:41:40.680Z,6.80
2022-10-11T09:44:09.279Z,6.73
2022-10-11T09:46:42.700Z,6.28
2022-10-11T09:49:15.595Z,6.60
2022-10-11T09:51:49.289Z,7.40
2022-10-11T09:54:20.849Z,6.38
2022-10-11T09:56:48.787Z,6.30
2022-10-11T09:59:28.014Z,6.40
2022-10-11T10:02:20.323Z,6.20
2022-10-11T10:05:17.972Z,5.72
2022-10-11T10:08:08.951Z,6.13
2022-10-11T10:10:40.397Z,6.07
2022-10-11T10:13:21.820Z,6.18
2022-10-11T10:15:52.103Z,6.32
2022-10-11T10:18:24.898Z,6.00
2022-10-11T10:20:55.267Z,7.07
2022-10-11T10:23:25.657Z,5.83
2022-10-11T10:25:55.184Z,6.10
2022-10-11T10:28:25.691Z,6.22
2022-10-11T10:30:55.425Z,6.35
2022-10-11T10:33:27.630Z,6.20
2022-10-11T10:36:00.963Z,6.13
2022-10-11T10:38:34.362Z,5.75
2022-10-11T10:41:04.710Z,5.72
2022-10-11T10:43:35.864Z,6.45
2022-10-11T10:46:26.706Z,5.88
2022-10-11T10:49:28.713Z,5.40
2022-10-11T10:52:05.404Z,6.10
2022-10-11T10:54:45.313Z,6.03
2022-10-11T10:57:20.181Z,5.47
2022-10-11T11:00:00.675Z,5.70
2022-10-11T11:02:40.802Z,5.30
2022-10-11T11:05:24.333Z,5.20
2022-10-11T11:07:57.815Z,5.47
2022-10-11T11:10:31.899Z,6.18
2022-10-11T11:13:18.277Z,6.22
2022-10-11T11:15:54.408Z,4.80
2022-10-11T11:18:30.669Z,5.45
2022-10-11T11:21:26.988Z,4.80
2022-10-11T11:24:00.153Z,4.80
2022-10-11T11:26:38.683Z,5.35
2022-10-11T11:29:19.693Z,5.07
2022-10-11T11:32:02.302Z,4.90
2022-10-11T11:34:37.207Z,5.60
2022-10-11T11:37:11.061Z,4.68
2022-10-11T11:39:44.008Z,5.68
2022-10-11T11:42:16.832Z,5.53
2022-10-11T11:44:48.267Z,6.55
2022-10-11T11:47:21.779Z,5.32
2022-10-11T11:49:54.564Z,5.20
2022-10-11T11:52:29.547Z,4.25
2022-10-11T11:55:07.480Z,4.63
2022-10-11T11:57:50.414Z,4.78
2022-10-11T12:00:21.709Z,5.53
2022-10-11T12:02:53.567Z,5.03
2022-10-11T12:05:24.117Z,5.30
2022-10-11T12:08:00.227Z,4.77
2022-10-11T12:10:33.140Z,4.50
2022-10-11T12:13:19.866Z,5.03
2022-10-11T12:16:09.737Z,4.63
2022-10-11T12:18:49.906Z,4.70
2022-10-11T12:21:26.193Z,4.67
2022-10-11T12:23:57.318Z,4.28
2022-10-11T12:26:40.586Z,5.35
2022-10-11T12:29:43.200Z,5.82
2022-10-11T12:32:52.752Z,5.47
2022-10-11T12:36:00.339Z,5.07
2022-10-11T12:38:34.025Z,4.80
2022-10-11T12:41:40.038Z,5.22
2022-10-11T12:44:10.423Z,5.10
2022-10-11T12:46:45.447Z,6.00
2022-10-11T12:49:38.715Z,5.80
2022-10-11T12:52:25.005Z,5.18
2022-10-11T12:55:26.835Z,5.30
2022-10-11T12:58:27.211Z,5.55
2022-10-11T13:01:19.106Z,5.13
2022-10-11T13:03:53.212Z,4.90
2022-10-11T13:06:25.445Z,4.60
2022-10-11T13:08:58.220Z,5.75
2022-10-11T13:11:32.253Z,5.32
2022-10-11T13:14:07.054Z,4.97
2022-10-11T13:16:48.973Z,7.30
2022-10-11T13:19:18.251Z,6.32
2022-10-11T13:21:54.358Z,5.82
2022-10-11T13:24:28.907Z,5.28
2022-10-11T13:26:58.050Z,5.07
2022-10-11T13:29:33.914Z,4.80
2022-10-11T13:32:04.707Z,4.13
2022-10-11T13:34:37.560Z,4.60
2022-10-11T13:37:06.178Z,4.55
2022-10-11T13:39:39.522Z,5.15
2022-10-11T13:42:11.453Z,4.77
2022-10-11T13:44:43.550Z,5.05
2022-10-11T13:47:15.499Z,5.05
2022-10-11T13:49:47.730Z,5.90
2022-10-11T13:52:24.353Z,4.90
2022-10-11T13:54:58.213Z,4.80
2022-10-11T13:57:35.711Z,5.40
2022-10-11T14:00:10.804Z,5.22
2022-10-11T14:02:39.187Z,5.13
2022-10-11T14:05:07.968Z,4.75
2022-10-11T14:07:39.909Z,4.23
2022-10-11T14:10:08.531Z,5.07
2022-10-11T14:12:40.548Z,4.95
2022-10-11T14:15:25.559Z,5.80
2022-10-11T14:17:54.118Z,5.30
2022-10-11T14:20:24.208Z,5.27
2022-10-11T14:22:53.105Z,5.05
2022-10-11T14:25:21.397Z,5.93
2022-10-11T14:27:49.824Z,5.50
2022-10-11T14:30:26.961Z,4.90
2022-10-11T14:32:59.101Z,4.87
2022-10-11T14:35:30.439Z,4.68
2022-10-11T14:37:59.052Z,4.85
2022-10-11T14:40:29.743Z,5.28
2022-10-11T14:42:58.330Z,5.78
2022-10-11T14:45:27.629Z,5.73
2022-10-11T14:47:57.388Z,5.20
2022-10-11T14:50:34.221Z,5.03
2022-10-11T14:53:02.979Z,5.47
2022-10-11T14:55:31.645Z,4.63
2022-10-11T14:58:00.692Z,5.43
2022-10-11T15:00:34.288Z,4.70
2022-10-11T15:03:03.361Z,6.13
2022-10-11T15:05:34.272Z,5.88
2022-10-11T15:08:02.610Z,5.55
2022-10-11T15:10:35.208Z,4.83
2022-10-11T15:13:04.896Z,4.70
2022-10-11T15:15:37.036Z,5.80
2022-10-11T15:18:07.007Z,5.47
2022-10-11T15:20:38.734Z,4.80
2022-10-11T15:23:09.776Z,5.00
2022-10-11T15:25:38.976Z,5.72
2022-10-11T15:28:07.816Z,4.70
2022-10-11T15:30:41.658Z,6.13
2022-10-11T15:33:10.243Z,5.55
2022-10-11T15:35:38.620Z,5.17
2022-10-11T15:38:06.903Z,4.55
2022-10-11T15:40:36.956Z,6.32
2022-10-11T15:43:05.943Z,5.40
2022-10-11T15:45:34.493Z,5.25
2022-10-11T15:48:03.803Z,5.93
2022-10-11T15:50:37.557Z,5.78
2022-10-11T15:53:07.549Z,6.70
2022-10-11T15:55:38.163Z,5.95
2022-10-11T15:58:06.338Z,6.75
2022-10-11T16:00:34.461Z,6.80
2022-10-11T16:03:03.914Z,6.22
2022-10-11T16:05:31.908Z,6.55
2022-10-11T16:08:00.225Z,6.35
2022-10-11T16:10:28.201Z,6.63
2022-10-11T16:12:56.081Z,6.10
2022-10-11T16:15:24.286Z,6.55
2022-10-11T16:17:52.412Z,6.68
2022-10-11T16:20:24.304Z,6.57
2022-10-11T16:22:53.374Z,6.53
2022-10-11T16:25:22.499Z,6.37
2022-10-11T16:27:50.329Z,5.55
2022-10-11T16:30:20.137Z,6.15
2022-10-11T16:32:48.111Z,6.00
2022-10-11T16:35:20.930Z,6.43
2022-10-11T16:37:50.196Z,7.30
2022-10-11T16:40:20.428Z,6.78
2022-10-11T16:42:48.981Z,6.57
2022-10-11T16:45:17.501Z,6.60
2022-10-11T16:47:46.241Z,6.22
2022-10-11T16:50:14.463Z,6.20
2022-10-11T16:52:42.687Z,5.72
2022-10-11T16:55:12.282Z,6.28
2022-10-11T16:57:40.001Z,7.03
2022-10-11T17:00:10.167Z,6.65
2022-10-11T17:02:38.130Z,6.67
2022-10-11T17:05:06.438Z,7.20
2022-10-11T17:07:34.536Z,6.78
2022-10-11T17:10:02.455Z,7.22
2022-10-11T17:12:31.924Z,6.88
2022-10-11T17:15:00.228Z,5.97
2022-10-11T17:17:28.093Z,5.68
2022-10-11T17:19:55.716Z,6.30
2022-10-11T17:22:24.229Z,6.93
2022-10-11T17:24:52.474Z,6.60
2022-10-11T17:27:22.266Z,7.37
2022-10-11T17:29:51.988Z,6.53
2022-10-11T17:32:20.016Z,7.05
2022-10-11T17:34:48.289Z,6.75
2022-10-11T17:37:16.378Z,6.05
2022-10-11T17:39:44.445Z,5.50
2022-10-11T17:42:12.288Z,5.85
2022-10-11T17:44:41.347Z,6.43
2022-10-11T17:47:10.613Z,5.65
2022-10-11T17:49:39.192Z,6.32
2022-10-11T17:52:07.428Z,5.97
2022-10-11T17:54:35.408Z,6.00
2022-10-11T17:57:03.367Z,7.13
2022-10-11T17:59:33.899Z,5.32
2022-10-11T18:02:02.157Z,4.68
2022-10-11T18:04:31.630Z,5.17
2022-10-11T18:07:00.239Z,4.05
2022-10-11T18:09:28.408Z,5.72
2022-10-11T18:11:56.296Z,4.60
2022-10-11T18:14:25.017Z,4.75
2022-10-11T18:16:53.009Z,5.50
2022-10-11T18:19:20.993Z,5.40
2022-10-11T18:21:50.255Z,5.25
2022-10-11T18:24:18.687Z,8.15
2022-10-11T18:26:48.736Z,7.10
2022-10-11T18:29:17.016Z,7.07
2022-10-11T18:31:44.647Z,6.95
2022-10-11T18:34:18.148Z,5.55
2022-10-11T18:36:48.294Z,7.25
2022-10-11T18:39:17.944Z,6.85
2022-10-11T18:41:45.769Z,6.10
2022-10-11T18:44:15.496Z,5.50
2022-10-11T18:46:44.192Z,5.15
2022-10-11T18:49:12.693Z,5.47
2022-10-11T18:51:42.995Z,5.88
2022-10-11T18:54:16.708Z,5.60
2022-10-11T18:56:49.274Z,5.43
2022-10-11T18:59:17.184Z,7.18
2022-10-11T19:01:46.254Z,5.70
2022-10-11T19:04:16.226Z,5.55
2022-10-11T19:06:47.442Z,4.50
2022-10-11T19:09:17.979Z,6.30
2022-10-11T19:11:46.252Z,7.22
2022-10-11T19:14:17.229Z,6.05
2022-10-11T19:16:49.985Z,4.95
2022-10-11T19:19:20.211Z,5.07
2022-10-11T19:21:48.750Z,9.98
2022-10-11T19:24:17.068Z,15.00
2022-10-11T19:26:45.263Z,11.73
2022-10-11T19:29:16.137Z,8.63
2022-10-11T19:31:46.350Z,7.63
2022-10-11T19:34:15.245Z,6.32
2022-10-11T19:36:43.996Z,8.30
2022-10-11T19:39:13.550Z,9.65
2022-10-11T19:41:42.177Z,8.50
2022-10-11T19:44:10.136Z,7.20
2022-10-11T19:46:55.151Z,7.38
2022-10-11T19:49:25.446Z,8.88
2022-10-11T19:51:55.472Z,7.85
2022-10-11T19:54:30.858Z,7.82
2022-10-11T19:56:58.887Z,7.37
2022-10-11T19:59:28.065Z,6.72
2022-10-11T20:01:57.349Z,6.88
2022-10-11T20:04:54.748Z,7.47
2022-10-11T20:07:13.648Z,6.95
2022-10-11T20:09:41.638Z,6.47
2022-10-11T20:12:09.794Z,6.80
2022-10-11T20:14:37.380Z,6.63
2022-10-11T20:17:09.595Z,6.82
2022-10-11T20:19:37.313Z,8.15
2022-10-11T20:22:05.224Z,8.70
2022-10-11T20:24:34.811Z,7.97
2022-10-11T20:27:04.265Z,7.22
2022-10-11T20:29:32.338Z,7.70
2022-10-11T20:32:00.218Z,6.93
2022-10-11T20:34:30.321Z,7.53
2022-10-11T20:36:59.425Z,7.90
2022-10-11T20:39:27.954Z,8.30
2022-10-11T20:41:56.031Z,9.07
2022-10-11T20:44:26.368Z,9.15
2022-10-11T20:46:54.391Z,9.03
2022-10-11T20:49:22.806Z,8.18
2022-10-11T20:51:52.091Z,8.00
2022-10-11T20:54:20.044Z,8.38
2022-10-11T20:56:48.274Z,8.40
2022-10-11T20:59:16.191Z,9.13
2022-10-11T21:01:44.389Z,8.40
2022-10-11T21:04:21.168Z,9.32
2022-10-11T21:06:51.315Z,8.88
2022-10-11T21:09:20.659Z,10.20
2022-10-11T21:11:48.737Z,12.80
2022-10-11T21:14:17.321Z,13.45
2022-10-11T21:16:45.690Z,12.32
2022-10-11T21:19:17.106Z,12.82
2022-10-11T21:21:51.150Z,11.88
2022-10-11T21:24:23.438Z,10.10
2022-10-11T21:26:51.540Z,9.45
2022-10-11T21:29:19.277Z,9.43
2022-10-11T21:31:47.032Z,9.52
2022-10-11T21:34:15.184Z,9.50
2022-10-11T21:36:43.834Z,8.50
2022-10-11T21:39:12.044Z,9.63
2022-10-11T21:41:42.434Z,9.75
2022-10-11T21:44:10.422Z,10.50
2022-10-11T21:47:01.725Z,8.70
2022-10-11T21:49:27.305Z,7.73
2022-10-11T21:51:55.229Z,7.70
2022-10-11T21:54:22.873Z,7.32
2022-10-11T21:56:52.697Z,7.95
2022-10-11T21:59:22.233Z,7.63
2022-10-11T22:01:50.389Z,8.77
2022-10-11T22:04:18.368Z,8.50
2022-10-11T22:06:46.899Z,8.60
2022-10-11T22:09:14.745Z,8.15
2022-10-11T22:11:42.595Z,9.13
2022-10-11T22:14:12.346Z,9.33
2022-10-11T22:16:40.430Z,8.10
2022-10-11T22:19:08.516Z,7.40
2022-10-11T22:21:39.166Z,7.93
2022-10-11T22:24:10.587Z,8.18
2022-10-11T22:26:38.742Z,7.27
2022-10-11T22:29:06.599Z,7.95
2022-10-11T22:31:38.566Z,7.22
2022-10-11T22:34:07.367Z,7.95
2022-10-11T22:36:35.862Z,7.78
2022-10-11T22:39:07.870Z,7.40
2022-10-11T22:41:36.731Z,8.13
2022-10-11T22:44:05.495Z,7.95
2022-10-11T22:46:34.248Z,8.20
2022-10-11T22:49:03.646Z,7.28
2022-10-11T22:51:31.743Z,8.17
2022-10-11T22:53:59.765Z,8.27
2022-10-11T22:56:27.941Z,8.30
2022-10-11T22:58:56.212Z,8.55
2022-10-11T23:01:24.133Z,8.52
2022-10-11T23:03:52.577Z,8.63
2022-10-11T23:06:21.996Z,8.57
2022-10-11T23:08:49.903Z,8.90
2022-10-11T23:11:18.305Z,8.60
2022-10-11T23:13:46.462Z,7.95
2022-10-11T23:16:15.105Z,8.33
2022-10-11T23:18:43.525Z,9.00
2022-10-11T23:21:11.558Z,8.45
2022-10-11T23:23:41.290Z,9.35
2022-10-11T23:26:12.367Z,9.35
2022-10-11T23:28:40.640Z,7.80
2022-10-11T23:31:11.663Z,8.38
2022-10-11T23:33:40.347Z,8.52
2022-10-11T23:36:15.496Z,8.75
2022-10-11T23:38:44.794Z,8.82
2022-10-11T23:41:13.172Z,8.33
2022-10-11T23:43:42.256Z,8.50
2022-10-11T23:46:11.122Z,8.43
2022-10-11T23:48:39.208Z,10.38
2022-10-11T23:51:07.393Z,10.10
2022-10-11T23:53:36.284Z,9.43
2022-10-11T23:56:07.252Z,9.40
2022-10-11T23:58:36.103Z,9.98
